Airfield :
LOGIN :

Register | Disclaimer

   EN    FR    IT 

 










Legend :    VFR   Marginal VFR   IFR   Intensive IFR   Very Intensive IFR
Visi :
Ceiling :
>= 8 km
>= 3000ft
5 to 8 km
1000 to 3000 ft
1500m to 5 km
500 to 1000 ft
800 to 1500m
200 to 500 ft
< 800m
< 200 ft
Symbols :   Thunderstorms  Fog  Heavy snow  Heavy precipitations  Wind > 20 kt
SIGMETs :     Misc.  Thunderstorms  Icing  Turbulence  Mountain Waves  Volcanic Ashes






- Airport Elevation : 535 ft


LFBF - Toulouse / Francazal

CURRENT METAR :
  • 280830Z AUTO 27010KT 9999 -RA FEW013 BKN052 BKN064 09/07 Q1019

EXPIRED METARs :
  • 280800Z AUTO 26009KT 9999 FEW014 SCT041 BKN054 09/07 Q1019
  • 280730Z AUTO 26008KT 9999 FEW013/// SCT033/// BKN042/// ///TCU 09/07 Q1018
  • 280700Z AUTO 26008KT 9999 FEW027/// BKN038/// BKN062/// ///TCU 09/08 Q1018
  • 280630Z AUTO 25006KT 9999 -RA BKN049/// BKN058/// BKN068/// ///TCU 09/08 Q1018
  • 280600Z AUTO 23005KT 200V260 9999 -RA SCT013/// BKN038/// BKN049/// ///TCU 09/08 Q1018

TAF N/A



MET'MAP, your aeronautical weather chart ! - Copyright ORBIFLY December 2007 - Disclaimer

ORBIFLY MET'MAP TEAM :

Programming & Development : Alexandra Zaïnal
Original concept : Baudouin d'Aumeries
Technical & hardware support : Manuel Goepfert
Assistance : Marc-Olivier Méhu




SOURCES & CREDITS :

   NOAA